createdAt,value
2022-10-22T00:01:45.833Z,96245.37
2022-10-22T00:04:14.403Z,96236.92
2022-10-22T00:06:44.970Z,96233.27
2022-10-22T00:09:14.321Z,96236.58
2022-10-22T00:11:42.787Z,96231.73
2022-10-22T00:14:12.001Z,96230.86
2022-10-22T00:16:39.987Z,96225.15
2022-10-22T00:19:09.364Z,96228.57
2022-10-22T00:21:37.582Z,96222.86
2022-10-22T00:24:05.831Z,96223.15
2022-10-22T00:26:33.943Z,96224.42
2022-10-22T00:29:02.080Z,96225.35
2022-10-22T00:31:30.038Z,96227.86
2022-10-22T00:33:58.090Z,96222.57
2022-10-22T00:46:43.096Z,96214.83
2022-10-22T00:49:17.120Z,96213.30
2022-10-22T00:51:45.380Z,96213.29
2022-10-22T00:54:13.493Z,96208.26
2022-10-22T00:56:41.528Z,96208.02
2022-10-22T00:59:10.557Z,96209.14
2022-10-22T01:01:38.519Z,96209.39
2022-10-22T01:04:06.438Z,96207.73
2022-10-22T01:06:34.502Z,96207.81
2022-10-22T01:09:27.035Z,96208.40
2022-10-22T01:12:16.306Z,96202.10
2022-10-22T01:15:03.746Z,96198.55
2022-10-22T01:17:46.888Z,96198.63
2022-10-22T01:21:00.373Z,96196.83
2022-10-22T01:23:56.248Z,96202.80
2022-10-22T01:26:55.355Z,96198.10
2022-10-22T01:29:32.624Z,96193.12
2022-10-22T01:32:11.081Z,96190.20
2022-10-22T01:34:47.757Z,96182.95
2022-10-22T01:37:33.074Z,96185.77
2022-10-22T01:40:02.444Z,96184.68
2022-10-22T01:42:30.485Z,96185.16
2022-10-22T01:44:58.716Z,96189.23
2022-10-22T01:48:13.976Z,96188.66
2022-10-22T01:50:56.298Z,96186.27
2022-10-22T01:58:32.470Z,96179.38
2022-10-22T02:02:30.609Z,96180.39
2022-10-22T02:05:04.982Z,96173.55
2022-10-22T02:07:38.228Z,96171.80
2022-10-22T02:10:08.854Z,96168.45
2022-10-22T02:12:39.338Z,96168.92
2022-10-22T02:15:09.877Z,96171.17
2022-10-22T02:17:48.456Z,96177.63
2022-10-22T02:20:25.172Z,96178.60
2022-10-22T02:22:54.152Z,96176.78
2022-10-22T02:25:25.063Z,96177.98
2022-10-22T02:28:25.548Z,96178.30
2022-10-22T02:31:04.520Z,96173.80
2022-10-22T02:33:39.136Z,96169.64
2022-10-22T02:36:08.482Z,96171.38
2022-10-22T02:38:39.508Z,96174.19
2022-10-22T02:41:07.778Z,96175.56
2022-10-22T02:43:41.875Z,96175.73
2022-10-22T02:46:11.511Z,96169.53
2022-10-22T02:48:39.493Z,96164.55
2022-10-22T02:51:07.624Z,96167.33
2022-10-22T02:53:35.588Z,96166.48
2022-10-22T02:56:04.257Z,96163.95
2022-10-22T02:58:35.874Z,96160.86
2022-10-22T03:01:05.982Z,96160.34
2022-10-22T03:03:34.137Z,96160.59
2022-10-22T03:06:02.424Z,96161.32
2022-10-22T03:08:30.439Z,96149.01
2022-10-22T03:10:58.556Z,96142.49
2022-10-22T03:13:26.637Z,96147.70
2022-10-22T03:15:54.477Z,96148.39
2022-10-22T03:18:22.407Z,96143.84
2022-10-22T03:20:50.283Z,96141.39
2022-10-22T03:23:20.303Z,96155.72
2022-10-22T03:25:49.797Z,96154.68
2022-10-22T03:28:18.760Z,96152.23
2022-10-22T03:30:46.698Z,96151.98
2022-10-22T03:33:14.681Z,96163.86
2022-10-22T03:35:46.896Z,96148.02
2022-10-22T03:38:15.308Z,96152.27
2022-10-22T03:40:46.036Z,96154.98
2022-10-22T03:43:14.206Z,96158.16
2022-10-22T03:45:42.044Z,96159.48
2022-10-22T03:48:09.890Z,96153.60
2022-10-22T03:50:37.760Z,96158.73
2022-10-22T03:53:07.229Z,96150.09
2022-10-22T03:55:35.098Z,96159.64
2022-10-22T03:58:02.994Z,96154.04
2022-10-22T04:00:30.971Z,96151.19
2022-10-22T04:02:58.877Z,96156.48
2022-10-22T04:05:27.076Z,96153.29
2022-10-22T04:07:55.200Z,96152.34
2022-10-22T04:10:23.208Z,96160.91
2022-10-22T04:12:51.450Z,96158.27
2022-10-22T04:15:31.423Z,96157.14
2022-10-22T04:18:01.374Z,96158.23
2022-10-22T04:20:29.406Z,96150.77
2022-10-22T04:22:58.252Z,96150.48
2022-10-22T04:25:30.570Z,96154.23
2022-10-22T04:27:58.437Z,96155.29
2022-10-22T04:30:26.439Z,96140.71
2022-10-22T04:32:54.389Z,96145.20
2022-10-22T04:35:22.599Z,96142.55
2022-10-22T04:37:50.673Z,96141.38
2022-10-22T04:40:18.633Z,96146.66
2022-10-22T04:42:46.453Z,96135.02
2022-10-22T04:45:15.783Z,96145.33
2022-10-22T04:47:43.879Z,96145.20
2022-10-22T04:50:12.255Z,96152.41
2022-10-22T04:52:40.276Z,96151.80
2022-10-22T04:55:08.482Z,96151.80
2022-10-22T04:57:36.483Z,96158.19
2022-10-22T05:00:05.024Z,96150.73
2022-10-22T05:02:32.896Z,96155.14
2022-10-22T05:05:00.784Z,96157.70
2022-10-22T05:07:28.706Z,96153.02
2022-10-22T05:09:56.554Z,96156.92
2022-10-22T05:12:24.481Z,96156.64
2022-10-22T05:14:52.482Z,96165.16
2022-10-22T05:17:20.276Z,96166.92
2022-10-22T05:19:48.126Z,96162.73
2022-10-22T05:22:15.933Z,96167.95
2022-10-22T05:24:44.367Z,96168.48
2022-10-22T05:27:12.421Z,96165.73
2022-10-22T05:29:40.554Z,96170.61
2022-10-22T05:32:08.563Z,96173.23
2022-10-22T05:34:36.497Z,96173.44
2022-10-22T05:37:04.348Z,96176.20
2022-10-22T05:39:36.910Z,96175.81
2022-10-22T05:42:05.087Z,96177.73
2022-10-22T05:44:32.955Z,96182.56
2022-10-22T05:47:00.834Z,96187.70
2022-10-22T05:49:28.983Z,96189.50
2022-10-22T05:51:56.885Z,96187.84
2022-10-22T05:54:24.680Z,96187.48
2022-10-22T05:56:52.525Z,96188.73
2022-10-22T05:59:20.597Z,96197.16
2022-10-22T06:01:48.583Z,96194.61
2022-10-22T06:04:17.981Z,96188.95
2022-10-22T06:06:49.159Z,96188.83
2022-10-22T06:09:24.956Z,96193.81
2022-10-22T06:11:53.248Z,96196.05
2022-10-22T06:14:22.020Z,96196.85
2022-10-22T06:16:50.733Z,96198.86
2022-10-22T06:19:21.233Z,96201.42
2022-10-22T06:21:49.500Z,96196.64
2022-10-22T06:24:17.504Z,96194.23
2022-10-22T06:26:49.962Z,96192.86
2022-10-22T06:29:18.220Z,96191.27
2022-10-22T06:31:46.108Z,96186.71
2022-10-22T06:34:15.244Z,96174.35
2022-10-22T06:36:45.011Z,96174.16
2022-10-22T06:39:16.396Z,96173.48
2022-10-22T06:41:44.270Z,96169.34
2022-10-22T06:44:15.734Z,96164.58
2022-10-22T06:46:43.984Z,96162.80
2022-10-22T06:49:17.214Z,96162.59
2022-10-22T06:51:45.768Z,96159.15
2022-10-22T06:54:13.712Z,96158.36
2022-10-22T06:56:42.266Z,96163.86
2022-10-22T06:59:10.128Z,96170.48
2022-10-22T07:01:38.443Z,96170.73
2022-10-22T07:04:07.001Z,96175.96
2022-10-22T07:06:34.927Z,96178.82
2022-10-22T07:09:03.096Z,96181.48
2022-10-22T07:11:39.085Z,96176.88
2022-10-22T07:14:07.783Z,96175.71
2022-10-22T07:16:35.768Z,96176.83
2022-10-22T07:19:05.696Z,96181.12
2022-10-22T07:21:34.509Z,96185.17
2022-10-22T07:24:02.437Z,96182.57
2022-10-22T07:26:32.602Z,96178.58
2022-10-22T07:29:01.548Z,96176.70
2022-10-22T07:31:30.131Z,96176.61
2022-10-22T07:33:58.921Z,96181.02
2022-10-22T07:36:26.952Z,96179.20
2022-10-22T07:38:57.816Z,96178.79
2022-10-22T07:41:27.634Z,96180.63
2022-10-22T07:43:56.991Z,96177.54
2022-10-22T07:46:26.436Z,96174.66
2022-10-22T07:48:54.735Z,96172.97
2022-10-22T07:51:23.821Z,96174.27
2022-10-22T07:53:51.790Z,96176.13
2022-10-22T07:56:19.649Z,96172.52
2022-10-22T07:58:47.539Z,96176.49
2022-10-22T08:01:15.554Z,96182.27
2022-10-22T08:03:44.510Z,96179.58
2022-10-22T08:06:15.634Z,96178.73
2022-10-22T08:08:45.843Z,96177.93
2022-10-22T08:11:14.063Z,96182.83
2022-10-22T08:13:45.325Z,96184.48
2022-10-22T08:16:15.169Z,96184.31
2022-10-22T08:18:43.243Z,96181.40
2022-10-22T08:21:13.190Z,96185.65
2022-10-22T08:23:41.248Z,96190.76
2022-10-22T08:26:10.363Z,96189.48
2022-10-22T08:28:39.029Z,96184.48
2022-10-22T08:31:18.110Z,96183.54
2022-10-22T08:33:46.367Z,96184.52
2022-10-22T08:36:14.491Z,96182.75
2022-10-22T08:38:42.468Z,96186.67
2022-10-22T08:41:14.508Z,96189.54
2022-10-22T08:44:00.576Z,96189.98
2022-10-22T08:46:37.823Z,96193.75
2022-10-22T08:49:13.030Z,96195.67
2022-10-22T08:51:41.028Z,96202.60
2022-10-22T08:54:24.049Z,96200.98
2022-10-22T08:57:09.861Z,96200.95
2022-10-22T08:59:51.577Z,96203.52
2022-10-22T09:02:41.616Z,96204.84
2022-10-22T09:05:28.388Z,96212.69
2022-10-22T09:07:57.353Z,96215.43
2022-10-22T09:10:29.414Z,96214.19
2022-10-22T09:12:57.654Z,96212.72
2022-10-22T09:15:25.567Z,96213.39
2022-10-22T09:18:06.058Z,96214.81
2022-10-22T09:21:02.776Z,96209.73
2022-10-22T09:23:40.155Z,96209.33
2022-10-22T09:26:15.898Z,96209.07
2022-10-22T09:28:44.125Z,96214.94
2022-10-22T09:31:14.302Z,96214.23
2022-10-22T09:33:44.821Z,96200.58
2022-10-22T09:36:18.816Z,96208.17
2022-10-22T09:38:49.853Z,96215.79
2022-10-22T09:41:19.810Z,96197.93
2022-10-22T09:43:48.323Z,96194.76
2022-10-22T09:46:21.438Z,96210.11
2022-10-22T09:49:06.716Z,96204.73
2022-10-22T09:51:58.022Z,96200.95
2022-10-22T09:54:39.296Z,96206.86
2022-10-22T09:57:20.188Z,96196.71
2022-10-22T09:59:52.545Z,96193.71
2022-10-22T10:02:37.489Z,96200.48
2022-10-22T10:05:07.350Z,96201.79
2022-10-22T10:07:37.176Z,96201.30
2022-10-22T10:10:19.589Z,96195.50
2022-10-22T10:13:03.497Z,96194.77
2022-10-22T10:15:46.357Z,96194.84
2022-10-22T10:18:33.376Z,96189.16
2022-10-22T10:21:19.990Z,96192.32
2022-10-22T10:24:03.050Z,96190.14
2022-10-22T10:26:41.164Z,96190.41
2022-10-22T10:32:53.076Z,96191.58
2022-10-22T10:35:28.350Z,96188.05
2022-10-22T10:38:02.729Z,96187.58
2022-10-22T10:40:48.843Z,96190.10
2022-10-22T10:44:04.302Z,96192.31
2022-10-22T10:46:57.439Z,96194.39
2022-10-22T10:49:28.227Z,96190.42
2022-10-22T10:52:33.864Z,96188.67
2022-10-22T10:55:23.648Z,96192.94
2022-10-22T10:58:00.851Z,96191.13
2022-10-22T11:00:37.320Z,96190.34
2022-10-22T11:03:11.395Z,96187.32
2022-10-22T11:05:46.008Z,96180.97
2022-10-22T11:08:23.819Z,96175.48
2022-10-22T11:10:51.621Z,96168.29
2022-10-22T11:13:44.060Z,96166.46
2022-10-22T11:16:20.911Z,96166.37
2022-10-22T11:18:58.218Z,96169.35
2022-10-22T11:21:41.540Z,96169.30
2022-10-22T11:24:30.576Z,96161.02
2022-10-22T11:27:07.107Z,96156.09
2022-10-22T11:29:40.986Z,96156.89
2022-10-22T11:32:17.579Z,96158.58
2022-10-22T11:34:47.332Z,96148.31
2022-10-22T11:37:16.785Z,96150.39
2022-10-22T11:39:55.395Z,96151.96
2022-10-22T11:50:57.450Z,96146.88
2022-10-22T11:53:39.109Z,96143.61
2022-10-22T11:56:07.300Z,96140.98
2022-10-22T11:58:45.077Z,96145.20
2022-10-22T12:01:26.776Z,96139.42
2022-10-22T12:03:57.869Z,96142.48
2022-10-22T12:06:27.945Z,96145.51
2022-10-22T12:09:04.859Z,96145.13
2022-10-22T12:11:49.976Z,96148.10
2022-10-22T12:14:31.780Z,96146.19
2022-10-22T12:17:08.363Z,96142.56
2022-10-22T12:19:39.820Z,96144.49
2022-10-22T12:22:07.750Z,96146.55
2022-10-22T12:24:40.553Z,96139.38
2022-10-22T12:27:22.600Z,96139.31
2022-10-22T12:29:59.113Z,96140.50
2022-10-22T12:32:36.016Z,96142.62
2022-10-22T12:35:17.434Z,96142.54
2022-10-22T12:37:45.615Z,96139.63
2022-10-22T12:40:18.269Z,96136.31
2022-10-22T12:43:11.648Z,96136.08
2022-10-22T12:45:40.810Z,96129.73
2022-10-22T12:48:16.997Z,96124.28
2022-10-22T12:50:54.559Z,96128.95
2022-10-22T12:53:35.323Z,96131.71
2022-10-22T12:56:11.978Z,96126.77
2022-10-22T12:58:45.529Z,96127.98
2022-10-22T13:01:16.364Z,96126.02
2022-10-22T13:03:49.831Z,96124.98
2022-10-22T13:06:20.631Z,96119.16
2022-10-22T13:09:00.810Z,96115.87
2022-10-22T13:11:49.395Z,96107.77
2022-10-22T13:14:35.245Z,96102.40
2022-10-22T13:17:13.362Z,96107.39
2022-10-22T13:19:45.801Z,96110.69
2022-10-22T13:22:37.077Z,96118.65
2022-10-22T13:25:04.968Z,96118.75
2022-10-22T13:27:33.087Z,96113.18
2022-10-22T13:30:09.489Z,96112.45
2022-10-22T13:32:37.332Z,96109.20
2022-10-22T13:35:05.904Z,96106.77
2022-10-22T13:37:35.675Z,96099.81
2022-10-22T13:40:12.554Z,96094.32
2022-10-22T13:42:40.817Z,96094.96
2022-10-22T13:45:08.920Z,96086.65
2022-10-22T13:47:41.180Z,96088.59
2022-10-22T13:50:18.063Z,96088.77
2022-10-22T13:52:58.008Z,96084.95
2022-10-22T13:55:30.688Z,96083.84
2022-10-22T13:58:07.169Z,96082.70
2022-10-22T14:00:35.436Z,96083.58
2022-10-22T14:03:03.774Z,96075.69
2022-10-22T14:05:32.687Z,96076.17
2022-10-22T14:08:01.589Z,96075.83
2022-10-22T14:10:29.421Z,96069.71
2022-10-22T14:12:58.603Z,96070.48
2022-10-22T14:15:29.486Z,96074.05
2022-10-22T14:17:59.909Z,96074.73
2022-10-22T14:20:33.802Z,96078.08
2022-10-22T14:23:23.876Z,96069.61
2022-10-22T14:25:52.535Z,96068.17
2022-10-22T14:28:20.526Z,96067.92
2022-10-22T14:30:49.746Z,96065.03
2022-10-22T14:33:31.533Z,96060.28
2022-10-22T14:36:01.192Z,96058.35
2022-10-22T14:38:29.789Z,96055.24
2022-10-22T14:40:59.827Z,96052.26
2022-10-22T14:43:31.130Z,96050.98
2022-10-22T14:45:59.227Z,96051.43
2022-10-22T14:48:27.020Z,96054.66
2022-10-22T14:50:55.045Z,96052.23
2022-10-22T14:53:22.960Z,96052.61
2022-10-22T14:55:51.672Z,96054.95
2022-10-22T14:58:19.630Z,96047.97
2022-10-22T15:00:47.550Z,96049.48
2022-10-22T15:03:15.399Z,96048.52
2022-10-22T15:05:44.937Z,96049.13
2022-10-22T15:08:14.660Z,96049.23
2022-10-22T15:10:42.657Z,96051.57
2022-10-22T15:13:10.628Z,96049.20
2022-10-22T15:15:41.760Z,96044.52
2022-10-22T15:18:09.658Z,96043.64
2022-10-22T15:20:37.486Z,96046.58
2022-10-22T15:23:05.429Z,96042.64
2022-10-22T15:25:33.289Z,96042.14
2022-10-22T15:28:09.068Z,96040.86
2022-10-22T15:30:38.012Z,96033.89
2022-10-22T15:33:06.531Z,96034.05
2022-10-22T15:35:34.705Z,96036.41
2022-10-22T15:38:02.723Z,96036.42
2022-10-22T15:40:30.642Z,96037.04
2022-10-22T15:42:58.589Z,96032.02
2022-10-22T15:45:26.781Z,96036.12
2022-10-22T15:47:54.847Z,96038.71
2022-10-22T15:50:22.854Z,96044.13
2022-10-22T15:52:50.810Z,96046.05
2022-10-22T15:55:18.917Z,96041.87
2022-10-22T15:57:47.249Z,96040.22
2022-10-22T16:00:16.027Z,96035.85
2022-10-22T16:02:44.535Z,96035.23
2022-10-22T16:05:12.522Z,96039.80
2022-10-22T16:07:40.721Z,96038.33
2022-10-22T16:10:12.803Z,96035.38
2022-10-22T16:12:41.583Z,96032.98
2022-10-22T16:15:10.326Z,96031.36
2022-10-22T16:17:38.286Z,96037.09
2022-10-22T16:20:06.731Z,96034.33
2022-10-22T16:22:34.649Z,96035.56
2022-10-22T16:25:02.726Z,96036.54
2022-10-22T16:27:30.572Z,96036.95
2022-10-22T16:29:58.473Z,96031.51
2022-10-22T16:32:26.457Z,96035.67
2022-10-22T16:34:54.426Z,96034.81
2022-10-22T16:37:22.360Z,96030.02
2022-10-22T16:39:50.257Z,96035.62
2022-10-22T16:42:18.165Z,96030.61
2022-10-22T16:44:46.021Z,96028.30
2022-10-22T16:47:13.933Z,96026.79
2022-10-22T16:49:41.807Z,96027.56
2022-10-22T16:52:09.680Z,96030.44
2022-10-22T16:54:37.589Z,96028.60
2022-10-22T16:57:05.474Z,96028.28
2022-10-22T16:59:33.450Z,96023.68
2022-10-22T17:02:01.725Z,96022.02
2022-10-22T17:04:29.675Z,96023.40
2022-10-22T17:06:57.668Z,96022.67
2022-10-22T17:09:25.514Z,96024.07
2022-10-22T17:11:53.487Z,96023.30
2022-10-22T17:14:21.680Z,96026.13
2022-10-22T17:16:53.763Z,96035.23
2022-10-22T17:19:22.818Z,96032.45
2022-10-22T17:21:51.548Z,96024.86
2022-10-22T17:24:20.435Z,96027.73
2022-10-22T17:26:48.462Z,96029.48
2022-10-22T17:29:16.888Z,96028.02
2022-10-22T17:31:44.719Z,96032.98
2022-10-22T17:34:16.700Z,96040.90
2022-10-22T17:36:44.728Z,96040.20
2022-10-22T17:39:17.691Z,96040.77
2022-10-22T17:41:45.995Z,96037.39
2022-10-22T17:44:17.162Z,96041.20
2022-10-22T17:46:45.442Z,96039.55
2022-10-22T17:49:17.876Z,96032.75
2022-10-22T17:51:46.833Z,96030.55
2022-10-22T17:54:14.910Z,96033.34
2022-10-22T17:56:43.386Z,96032.52
2022-10-22T17:59:14.049Z,96021.40
2022-10-22T18:01:45.720Z,96016.84
2022-10-22T18:04:16.631Z,96014.79
2022-10-22T18:06:46.795Z,96009.59
2022-10-22T18:09:18.647Z,95998.40
2022-10-22T18:11:48.822Z,95990.40
2022-10-22T18:14:19.334Z,95987.53
2022-10-22T18:16:48.123Z,95986.43
2022-10-22T18:19:19.248Z,95990.48
2022-10-22T18:21:47.201Z,95993.74
2022-10-22T18:24:16.746Z,95990.84
2022-10-22T18:26:45.403Z,95983.55
2022-10-22T18:29:18.100Z,95986.72
2022-10-22T18:31:46.865Z,95978.23
2022-10-22T18:34:17.629Z,95977.07
2022-10-22T18:36:48.278Z,95975.00
2022-10-22T18:39:17.605Z,95973.29
2022-10-22T18:41:45.500Z,95969.35
2022-10-22T18:44:15.640Z,95967.16
2022-10-22T18:46:45.078Z,95963.39
2022-10-22T18:49:20.622Z,95969.65
2022-10-22T18:51:52.642Z,95965.07
2022-10-22T18:54:24.456Z,95959.65
2022-10-22T18:56:55.620Z,95966.23
2022-10-22T18:59:27.350Z,95969.42
2022-10-22T19:02:00.666Z,95969.43
2022-10-22T19:04:37.029Z,95969.91
2022-10-22T19:09:36.037Z,95965.25
2022-10-22T19:12:16.454Z,95969.05
2022-10-22T19:14:45.354Z,95977.08
2022-10-22T19:17:13.475Z,95977.02
2022-10-22T19:19:41.901Z,95976.58
2022-10-22T19:22:10.416Z,95972.44
2022-10-22T19:24:38.908Z,95968.52
2022-10-22T19:27:08.648Z,95964.96
2022-10-22T19:29:36.968Z,95966.15
2022-10-22T19:32:05.106Z,95970.19
2022-10-22T19:34:33.533Z,95971.92
2022-10-22T19:37:01.654Z,95985.14
2022-10-22T19:39:29.767Z,95993.96
2022-10-22T19:41:59.060Z,95984.65
2022-10-22T19:44:27.974Z,95974.30
2022-10-22T19:46:57.449Z,95959.00
2022-10-22T19:49:25.752Z,95961.33
2022-10-22T19:51:53.813Z,95972.12
2022-10-22T19:55:19.717Z,95976.45
2022-10-22T19:58:01.801Z,95982.11
2022-10-22T20:00:32.211Z,95985.39
2022-10-22T20:03:00.221Z,95985.64
2022-10-22T20:05:28.979Z,95985.90
2022-10-22T20:07:57.300Z,95987.58
2022-10-22T20:10:25.461Z,95981.60
2022-10-22T20:12:53.389Z,95978.04
2022-10-22T20:15:22.126Z,95976.08
2022-10-22T20:17:52.585Z,95981.66
2022-10-22T20:20:23.069Z,95978.50
2022-10-22T20:22:54.707Z,95972.24
2022-10-22T20:25:22.635Z,95973.27
2022-10-22T20:27:50.542Z,95973.77
2022-10-22T20:30:20.190Z,95970.59
2022-10-22T20:32:49.166Z,95980.97
2022-10-22T20:35:17.439Z,95980.33
2022-10-22T20:37:46.101Z,95973.75
2022-10-22T20:40:14.651Z,95976.71
2022-10-22T20:42:45.097Z,95985.91
2022-10-22T20:45:14.107Z,95982.38
2022-10-22T20:47:51.247Z,95975.00
2022-10-22T20:50:21.345Z,95971.40
2022-10-22T20:52:49.408Z,95969.17
2022-10-22T20:55:17.418Z,95974.87
2022-10-22T20:57:45.451Z,95977.80
2022-10-22T21:00:14.893Z,95973.90
2022-10-22T21:02:46.817Z,95971.35
2022-10-22T21:05:14.951Z,95979.02
2022-10-22T21:07:43.236Z,95979.23
2022-10-22T21:10:11.474Z,95980.29
2022-10-22T21:12:42.111Z,95975.88
2022-10-22T21:15:12.642Z,95973.77
2022-10-22T21:17:40.916Z,95972.38
2022-10-22T21:22:36.896Z,95967.89
2022-10-22T21:25:05.183Z,95967.23
2022-10-22T21:27:33.863Z,95969.11
2022-10-22T21:30:02.403Z,95973.82
2022-10-22T21:32:31.218Z,95974.95
2022-10-22T21:34:59.363Z,95976.90
2022-10-22T21:37:30.274Z,95976.63
2022-10-22T21:39:58.680Z,95977.34
2022-10-22T21:42:26.930Z,95977.52
2022-10-22T21:44:55.177Z,95975.46
2022-10-22T21:47:23.082Z,95982.39
2022-10-22T21:49:51.320Z,95984.75
2022-10-22T21:52:19.431Z,95984.42
2022-10-22T21:54:47.475Z,95987.73
2022-10-22T21:57:15.343Z,95988.75
2022-10-22T21:59:43.323Z,95986.49
2022-10-22T22:02:11.351Z,95983.83
2022-10-22T22:04:40.035Z,95982.75
2022-10-22T22:07:08.105Z,95989.27
2022-10-22T22:09:36.114Z,95994.54
2022-10-22T22:12:04.276Z,95990.34
2022-10-22T22:14:32.822Z,95989.73
2022-10-22T22:17:00.741Z,95986.48
2022-10-22T22:19:35.766Z,95981.91
2022-10-22T22:22:04.845Z,95974.55
2022-10-22T22:24:32.986Z,95977.52
2022-10-22T22:27:01.136Z,95976.85
2022-10-22T22:29:29.068Z,95975.95
2022-10-22T22:31:56.976Z,95975.86
2022-10-22T22:34:25.128Z,95983.73
2022-10-22T22:36:53.240Z,95986.30
2022-10-22T22:39:25.739Z,95990.02
2022-10-22T22:41:53.611Z,96000.24
2022-10-22T22:44:21.517Z,96004.30
2022-10-22T22:46:49.661Z,96002.63
2022-10-22T22:49:17.669Z,96001.38
2022-10-22T22:51:45.568Z,95998.30
2022-10-22T22:54:13.409Z,95997.93
2022-10-22T22:56:41.572Z,96001.10
2022-10-22T22:59:11.429Z,96003.91
2022-10-22T23:01:40.087Z,96005.48
2022-10-22T23:04:13.118Z,96006.97
2022-10-22T23:06:41.083Z,96008.82
2022-10-22T23:09:11.688Z,96010.80
2022-10-22T23:11:41.393Z,96011.18
2022-10-22T23:14:12.525Z,96013.64
2022-10-22T23:16:45.522Z,96016.46
2022-10-22T23:19:16.901Z,96016.42
2022-10-22T23:21:48.981Z,96024.88
2022-10-22T23:24:19.402Z,96024.95
2022-10-22T23:26:51.126Z,96028.78
2022-10-22T23:29:21.986Z,96032.91
2022-10-22T23:31:51.243Z,96027.75
2022-10-22T23:34:21.995Z,96028.08
2022-10-22T23:36:51.372Z,96034.91
2022-10-22T23:39:23.101Z,96036.61
2022-10-22T23:41:53.147Z,96041.19
2022-10-22T23:44:22.143Z,96045.38
2022-10-22T23:46:50.494Z,96050.05
2022-10-22T23:49:18.489Z,96051.71
2022-10-22T23:51:46.453Z,96047.92
2022-10-22T23:54:18.629Z,96048.70
2022-10-22T23:56:47.062Z,96053.68
2022-10-22T23:59:15.708Z,96055.48
